Time;durP1;ratioP1;P1;durP2;ratioP2;P2;SDS_P1;SDS_P2;PMS_P1;PMS_P2;Temp;Humidity;BMP_temperature;BMP_pressure;BME280_temperature;BME280_humidity;BME280_pressure;Samples;Min_cycle;Max_cycle;Signal;HPM_P1;HPM_P2
2023/03/11 00:01:30;;;;;;;;;;;-0.60;99.90;;;;;;4990874;28;19959;-61
2023/03/11 00:03:55;;;;;;;;;;;-0.60;99.90;;;;;;4989158;28;20447;-61
2023/03/11 00:06:21;;;;;;;;;;;-0.70;99.90;;;;;;4986116;28;19922;-61
2023/03/11 00:08:46;;;;;;;;;;;-0.70;99.90;;;;;;4988296;28;20286;-61
2023/03/11 00:11:12;;;;;;;;;;;-0.60;99.90;;;;;;4990776;28;20280;-61
2023/03/11 00:13:39;;;;;;;;;;;-0.50;99.90;;;;;;4988740;28;19926;-62
2023/03/11 00:16:05;;;;;;;;;;;-0.50;99.90;;;;;;4989807;28;20307;-61
2023/03/11 00:18:31;;;;;;;;;;;-0.30;99.90;;;;;;4990526;28;19968;-61
2023/03/11 00:20:57;;;;;;;;;;;-0.20;99.90;;;;;;4988785;28;19949;-61
2023/03/11 00:23:23;;;;;;;;;;;-0.10;99.90;;;;;;4989503;28;19968;-61
2023/03/11 00:25:48;;;;;;;;;;;-0.10;99.90;;;;;;4985872;28;19934;-60
2023/03/11 00:28:15;;;;;;;;;;;0.00;99.90;;;;;;4990377;28;19924;-60
2023/03/11 00:30:41;;;;;;;;;;;0.00;99.90;;;;;;4989165;28;19921;-60
2023/03/11 00:33:07;;;;;;;;;;;0.10;99.90;;;;;;4990431;28;19914;-60
2023/03/11 00:35:33;;;;;;;;;;;0.00;99.90;;;;;;4986851;28;20010;-61
2023/03/11 00:38:00;;;;;;;;;;;0.10;99.90;;;;;;4979267;28;20009;-60
2023/03/11 00:40:27;;;;;;;;;;;0.00;99.90;;;;;;5001860;28;20036;-60
2023/03/11 00:42:52;;;;;;;;;;;0.00;99.90;;;;;;4988393;28;20366;-60
2023/03/11 00:45:18;;;;;;;;;;;0.00;99.90;;;;;;4990037;28;19921;-60
2023/03/11 00:47:44;;;;;;;;;;;0.00;99.90;;;;;;4988771;28;20000;-60
2023/03/11 00:50:16;;;;;;;;;;;-0.10;99.90;;;;;;4990430;28;20362;-60
2023/03/11 00:52:42;;;;;;;;;;;-0.10;99.90;;;;;;4989048;28;20311;-60
2023/03/11 00:55:09;;;;;;;;;;;-0.20;99.90;;;;;;4989898;28;19921;-60
2023/03/11 00:57:35;;;;;;;;;;;-0.30;99.90;;;;;;4989982;28;19913;-61
2023/03/11 01:00:00;;;;;;;;;;;-0.30;99.90;;;;;;4988775;28;20250;-60
2023/03/11 01:02:26;;;;;;;;;;;-0.30;99.90;;;;;;4985172;28;19968;-60
2023/03/11 01:04:54;;;;;;;;;;;-0.30;99.90;;;;;;4988810;28;19996;-60
2023/03/11 01:07:20;;;;;;;;;;;-0.30;99.90;;;;;;4990274;28;19914;-60
2023/03/11 01:09:46;;;;;;;;;;;-0.30;99.90;;;;;;4992078;28;20000;-60
2023/03/11 01:12:11;;;;;;;;;;;-0.20;99.90;;;;;;4992772;28;20017;-60
2023/03/11 01:14:37;;;;;;;;;;;-0.30;99.90;;;;;;4991104;28;20373;-60
2023/03/11 01:17:03;;;;;;;;;;;-0.40;99.90;;;;;;4993065;28;19914;-60
2023/03/11 01:19:28;;;;;;;;;;;-0.30;99.90;;;;;;4991605;28;20004;-60
2023/03/11 01:21:54;;;;;;;;;;;-0.40;99.90;;;;;;4991224;28;19913;-60
2023/03/11 01:24:19;;;;;;;;;;;-0.40;99.90;;;;;;4993759;28;20388;-60
2023/03/11 01:26:45;;;;;;;;;;;-0.30;99.90;;;;;;4993439;28;19956;-59
2023/03/11 01:29:10;;;;;;;;;;;-0.30;99.90;;;;;;4992544;28;19914;-59
2023/03/11 01:31:36;;;;;;;;;;;-0.40;99.90;;;;;;4993091;28;19914;-60
2023/03/11 01:34:01;;;;;;;;;;;-0.50;99.90;;;;;;4993565;28;19913;-60
2023/03/11 01:36:27;;;;;;;;;;;-0.50;99.90;;;;;;4993633;28;20000;-60
2023/03/11 01:38:53;;;;;;;;;;;-0.60;99.90;;;;;;4985783;28;19996;-60
2023/03/11 01:41:18;;;;;;;;;;;-0.60;99.90;;;;;;4991734;28;19918;-60
2023/03/11 01:43:44;;;;;;;;;;;-0.70;99.90;;;;;;4991432;28;19936;-61
2023/03/11 01:46:12;;;;;;;;;;;-0.80;99.90;;;;;;4993577;28;19957;-59
2023/03/11 01:48:38;;;;;;;;;;;-0.70;99.90;;;;;;4984424;28;20405;-59
2023/03/11 01:51:05;;;;;;;;;;;-0.70;99.90;;;;;;4993109;28;19918;-59
2023/03/11 01:53:31;;;;;;;;;;;-0.60;99.90;;;;;;4992733;28;19914;-59
2023/03/11 01:55:56;;;;;;;;;;;-0.60;99.90;;;;;;4991438;28;20353;-59
2023/03/11 01:58:23;;;;;;;;;;;-0.60;99.90;;;;;;4992580;28;19921;-61
2023/03/11 02:00:49;;;;;;;;;;;-0.70;99.90;;;;;;4984106;28;21116;-59
2023/03/11 02:03:17;;;;;;;;;;;-0.80;99.90;;;;;;4993002;28;19917;-61
2023/03/11 02:05:43;;;;;;;;;;;-0.90;99.90;;;;;;4991038;28;19918;-61
2023/03/11 02:08:09;;;;;;;;;;;-0.90;99.90;;;;;;4993032;28;19918;-61
2023/03/11 02:10:36;;;;;;;;;;;-1.00;99.90;;;;;;4991444;28;19914;-58
2023/03/11 02:13:03;;;;;;;;;;;-1.10;99.90;;;;;;4991722;28;19940;-61
2023/03/11 02:15:28;;;;;;;;;;;-1.10;99.90;;;;;;4991572;28;19918;-61
2023/03/11 02:17:55;;;;;;;;;;;-1.00;99.90;;;;;;4989789;28;19968;-61
2023/03/11 02:20:27;;;;;;;;;;;-1.00;99.90;;;;;;4985754;28;19914;-60
2023/03/11 02:22:56;;;;;;;;;;;-1.00;99.90;;;;;;4987633;28;19917;-61
2023/03/11 02:25:26;;;;;;;;;;;-1.10;99.90;;;;;;4986328;28;19932;-61
2023/03/11 02:27:52;;;;;;;;;;;-1.10;99.90;;;;;;4989028;28;19921;-61
2023/03/11 02:30:19;;;;;;;;;;;-1.10;99.90;;;;;;4990258;28;19961;-60
2023/03/11 02:32:47;;;;;;;;;;;-1.20;99.90;;;;;;4988029;28;20384;-61
2023/03/11 02:35:13;;;;;;;;;;;-1.30;99.90;;;;;;4991280;28;20274;-61
2023/03/11 02:37:48;;;;;;;;;;;-1.30;99.90;;;;;;4989064;28;19917;-61
2023/03/11 02:40:16;;;;;;;;;;;-1.30;99.90;;;;;;4991139;28;19920;-61
2023/03/11 02:42:42;;;;;;;;;;;-1.30;99.90;;;;;;4987493;28;19914;-61
2023/03/11 02:45:09;;;;;;;;;;;-1.20;99.90;;;;;;4990724;28;19918;-61
2023/03/11 02:47:36;;;;;;;;;;;-1.20;99.90;;;;;;4991340;28;19988;-61
2023/03/11 02:50:02;;;;;;;;;;;-1.20;99.90;;;;;;4990401;28;19922;-61
2023/03/11 02:52:27;;;;;;;;;;;-1.10;99.90;;;;;;4987527;28;20380;-61
2023/03/11 02:54:53;;;;;;;;;;;-1.20;99.90;;;;;;4989104;28;19914;-62
2023/03/11 02:57:19;;;;;;;;;;;-1.20;99.90;;;;;;4990689;28;20032;-60
2023/03/11 02:59:44;;;;;;;;;;;-1.20;99.90;;;;;;4989488;28;19914;-60
2023/03/11 03:02:10;;;;;;;;;;;-1.20;99.90;;;;;;4990220;28;20273;-59
2023/03/11 03:04:35;;;;;;;;;;;-1.20;99.90;;;;;;4991170;28;19952;-60
2023/03/11 03:07:01;;;;;;;;;;;-1.20;99.90;;;;;;4989160;28;20017;-60
2023/03/11 03:09:27;;;;;;;;;;;-1.30;99.90;;;;;;4990919;28;19936;-59
2023/03/11 03:14:21;;;;;;;;;;;-1.30;99.90;;;;;;5114202;27;20371;-58
2023/03/11 03:16:47;;;;;;;;;;;-1.40;99.90;;;;;;5112404;28;19918;-59
2023/03/11 03:19:13;;;;;;;;;;;-1.40;99.90;;;;;;5112041;28;20325;-60
2023/03/11 03:21:38;;;;;;;;;;;-1.40;99.90;;;;;;5121705;28;19912;-61
2023/03/11 03:24:04;;;;;;;;;;;-1.40;99.90;;;;;;5108908;28;19947;-58
2023/03/11 03:26:30;;;;;;;;;;;-1.40;99.90;;;;;;5118365;28;19912;-62
2023/03/11 03:28:55;;;;;;;;;;;-1.40;99.90;;;;;;5111808;28;19965;-60
2023/03/11 03:31:21;;;;;;;;;;;-1.40;99.90;;;;;;5115454;28;19912;-59
2023/03/11 03:33:46;;;;;;;;;;;-1.40;99.90;;;;;;5101847;28;20011;-59
2023/03/11 03:36:13;;;;;;;;;;;-1.40;99.90;;;;;;5109390;28;19912;-59
2023/03/11 03:38:39;;;;;;;;;;;-1.40;99.90;;;;;;5107935;28;19939;-60
2023/03/11 03:41:05;;;;;;;;;;;-1.50;99.90;;;;;;5108347;28;19955;-60
2023/03/11 03:43:30;;;;;;;;;;;-1.50;99.90;;;;;;5100540;28;19912;-59
2023/03/11 03:45:57;;;;;;;;;;;-1.40;99.90;;;;;;5107533;28;19964;-59
2023/03/11 03:48:22;;;;;;;;;;;-1.40;99.90;;;;;;5110853;28;20287;-59
2023/03/11 03:50:48;;;;;;;;;;;-1.40;99.90;;;;;;5116588;28;19918;-59
2023/03/11 03:53:13;;;;;;;;;;;-1.40;99.90;;;;;;5108896;28;19920;-60
2023/03/11 03:55:39;;;;;;;;;;;-1.40;99.90;;;;;;5107227;28;20371;-59
2023/03/11 03:58:04;;;;;;;;;;;-1.30;99.90;;;;;;5114181;28;19973;-59
2023/03/11 04:00:30;;;;;;;;;;;-1.20;99.90;;;;;;5115135;28;19912;-59
2023/03/11 04:02:55;;;;;;;;;;;-1.20;99.90;;;;;;5110529;28;20347;-59
2023/03/11 04:05:21;;;;;;;;;;;-1.20;99.90;;;;;;5109975;28;19916;-59
2023/03/11 04:07:47;;;;;;;;;;;-1.20;99.90;;;;;;5114679;28;19918;-59
2023/03/11 04:10:13;;;;;;;;;;;-1.30;99.90;;;;;;5115800;28;20185;-59
2023/03/11 04:12:38;;;;;;;;;;;-1.30;99.90;;;;;;5123222;28;20454;-59
2023/03/11 04:15:04;;;;;;;;;;;-1.30;99.90;;;;;;5098891;27;20015;-60
2023/03/11 04:17:30;;;;;;;;;;;-1.20;99.90;;;;;;5114905;28;19912;-59
2023/03/11 04:19:55;;;;;;;;;;;-1.20;99.90;;;;;;5108255;28;20329;-59
2023/03/11 04:22:21;;;;;;;;;;;-1.10;99.90;;;;;;5107339;28;20291;-60
2023/03/11 04:24:47;;;;;;;;;;;-1.10;99.90;;;;;;5103606;28;19998;-59
2023/03/11 04:27:12;;;;;;;;;;;-1.10;99.90;;;;;;5101408;28;20325;-59
2023/03/11 04:29:38;;;;;;;;;;;-1.00;99.90;;;;;;5098119;28;19912;-59
2023/03/11 04:32:04;;;;;;;;;;;-1.10;99.90;;;;;;5092801;28;20405;-59
2023/03/11 04:34:29;;;;;;;;;;;-1.10;99.90;;;;;;5093867;28;19912;-59
2023/03/11 04:36:55;;;;;;;;;;;-1.00;99.90;;;;;;5102230;28;19927;-59
2023/03/11 04:39:20;;;;;;;;;;;-1.00;99.90;;;;;;5099930;28;20274;-59
2023/03/11 04:41:46;;;;;;;;;;;-0.90;99.90;;;;;;5108078;22;19916;-61
2023/03/11 04:44:11;;;;;;;;;;;-0.90;99.90;;;;;;5092738;28;19923;-61
2023/03/11 04:46:37;;;;;;;;;;;-0.80;99.90;;;;;;5074843;28;20387;-60
2023/03/11 04:49:03;;;;;;;;;;;-0.70;99.90;;;;;;5073046;28;20387;-60
2023/03/11 04:51:28;;;;;;;;;;;-0.70;99.90;;;;;;5077374;28;20123;-60
2023/03/11 04:53:54;;;;;;;;;;;-0.70;99.90;;;;;;5069005;28;19920;-59
2023/03/11 04:56:19;;;;;;;;;;;-0.60;99.90;;;;;;5078054;28;19936;-59
2023/03/11 04:58:45;;;;;;;;;;;-0.60;99.90;;;;;;5072863;28;19958;-61
2023/03/11 05:01:10;;;;;;;;;;;-0.50;99.90;;;;;;5073345;28;20007;-59
2023/03/11 05:03:39;;;;;;;;;;;-0.50;99.90;;;;;;5071990;28;19916;-59
2023/03/11 05:06:08;;;;;;;;;;;-0.50;99.90;;;;;;5081718;28;19921;-59
2023/03/11 05:08:34;;;;;;;;;;;-0.50;99.90;;;;;;5072321;28;19912;-60
2023/03/11 05:10:59;;;;;;;;;;;-0.50;99.90;;;;;;5081794;28;19923;-59
2023/03/11 05:13:25;;;;;;;;;;;-0.40;99.90;;;;;;5063316;28;19932;-60
2023/03/11 05:15:50;;;;;;;;;;;-0.40;99.90;;;;;;5069671;28;20362;-60
2023/03/11 05:18:16;;;;;;;;;;;-0.40;99.90;;;;;;5075664;28;19921;-60
2023/03/11 05:20:44;;;;;;;;;;;-0.30;99.90;;;;;;5070542;28;19920;-60
2023/03/11 05:23:10;;;;;;;;;;;-0.30;99.90;;;;;;5066834;28;20321;-60
2023/03/11 05:25:36;;;;;;;;;;;-0.30;99.90;;;;;;5083470;28;20021;-58
2023/03/11 05:28:02;;;;;;;;;;;-0.30;99.90;;;;;;5068200;28;19912;-60
2023/03/11 05:30:28;;;;;;;;;;;-0.40;99.90;;;;;;5061840;28;19919;-60
2023/03/11 05:32:55;;;;;;;;;;;-0.40;99.90;;;;;;5072855;28;19928;-60
2023/03/11 05:35:20;;;;;;;;;;;-0.50;99.90;;;;;;5075791;28;19950;-60
2023/03/11 05:37:48;;;;;;;;;;;-0.50;99.90;;;;;;5073560;28;19912;-60
2023/03/11 05:40:14;;;;;;;;;;;-0.40;99.90;;;;;;5071075;28;19966;-60
2023/03/11 05:42:40;;;;;;;;;;;-0.40;99.90;;;;;;5074836;28;20317;-58
2023/03/11 05:45:07;;;;;;;;;;;-0.30;99.90;;;;;;5070864;28;19920;-60
2023/03/11 05:47:33;;;;;;;;;;;-0.20;99.90;;;;;;5078036;28;19916;-60
2023/03/11 05:49:58;;;;;;;;;;;-0.20;99.90;;;;;;5076783;28;19916;-60
2023/03/11 05:52:25;;;;;;;;;;;-0.20;99.90;;;;;;5077472;28;19922;-59
2023/03/11 05:54:50;;;;;;;;;;;-0.20;99.90;;;;;;5076674;28;20602;-60
2023/03/11 05:57:16;;;;;;;;;;;-0.10;99.90;;;;;;5080938;28;19919;-60
2023/03/11 05:59:42;;;;;;;;;;;-0.10;99.90;;;;;;5077679;28;19912;-60
2023/03/11 06:02:08;;;;;;;;;;;-0.20;99.90;;;;;;5076417;28;19913;-60
2023/03/11 06:04:34;;;;;;;;;;;-0.10;99.90;;;;;;5084007;28;20003;-60
2023/03/11 06:06:59;;;;;;;;;;;-0.10;99.90;;;;;;5072356;28;19912;-60
2023/03/11 06:09:25;;;;;;;;;;;-0.10;99.90;;;;;;5081122;28;19912;-60
2023/03/11 06:11:51;;;;;;;;;;;0.00;99.90;;;;;;5081583;28;19920;-59
2023/03/11 06:14:17;;;;;;;;;;;0.00;99.90;;;;;;5079999;28;19932;-60
2023/03/11 06:16:42;;;;;;;;;;;0.00;99.90;;;;;;5066854;28;20284;-59
2023/03/11 06:19:08;;;;;;;;;;;0.00;99.90;;;;;;5070326;28;19912;-59
2023/03/11 06:21:34;;;;;;;;;;;0.00;99.90;;;;;;5072307;28;19919;-59
2023/03/11 06:24:00;;;;;;;;;;;0.10;99.90;;;;;;5071298;28;19912;-61
2023/03/11 06:26:25;;;;;;;;;;;0.20;99.90;;;;;;5066378;28;19913;-61
2023/03/11 06:28:51;;;;;;;;;;;0.30;99.90;;;;;;5068308;28;20012;-60
2023/03/11 06:31:21;;;;;;;;;;;0.30;99.90;;;;;;5074222;28;19940;-61
2023/03/11 06:33:47;;;;;;;;;;;0.30;99.90;;;;;;5073005;28;19921;-60
2023/03/11 06:36:13;;;;;;;;;;;0.40;99.90;;;;;;5071396;28;20000;-60
2023/03/11 06:38:39;;;;;;;;;;;0.40;99.90;;;;;;5080578;28;19966;-60
2023/03/11 06:41:05;;;;;;;;;;;0.30;99.90;;;;;;5076531;28;19916;-61
2023/03/11 06:43:30;;;;;;;;;;;0.20;99.90;;;;;;5077999;28;19927;-60
2023/03/11 06:45:56;;;;;;;;;;;0.20;99.90;;;;;;5075049;28;19916;-60
2023/03/11 06:48:22;;;;;;;;;;;0.10;99.90;;;;;;5067379;28;20410;-59
2023/03/11 06:50:57;;;;;;;;;;;0.10;99.90;;;;;;5063028;28;20323;-60
2023/03/11 06:53:23;;;;;;;;;;;0.20;99.90;;;;;;5071004;28;19926;-60
2023/03/11 06:55:58;;;;;;;;;;;0.20;99.90;;;;;;5065419;28;20000;-61
2023/03/11 06:58:24;;;;;;;;;;;0.20;99.90;;;;;;5070481;28;19919;-60
2023/03/11 07:00:50;;;;;;;;;;;0.20;99.90;;;;;;5067310;28;19917;-61
2023/03/11 07:03:15;;;;;;;;;;;0.30;99.90;;;;;;5069352;28;19912;-60
2023/03/11 07:05:41;;;;;;;;;;;0.30;99.90;;;;;;5059948;28;19916;-61
2023/03/11 07:08:06;;;;;;;;;;;0.30;99.90;;;;;;5071033;28;19961;-60
2023/03/11 07:10:32;;;;;;;;;;;0.40;99.90;;;;;;5060825;28;19912;-58
2023/03/11 07:12:57;;;;;;;;;;;0.40;99.90;;;;;;5059578;28;19943;-60
2023/03/11 07:15:23;;;;;;;;;;;0.50;99.90;;;;;;5062880;28;19992;-60
2023/03/11 07:17:49;;;;;;;;;;;0.50;99.90;;;;;;5063082;28;19913;-60
2023/03/11 07:20:15;;;;;;;;;;;0.60;99.90;;;;;;5057432;28;19927;-61
2023/03/11 07:22:40;;;;;;;;;;;0.60;99.90;;;;;;5059974;28;20318;-59
2023/03/11 07:25:06;;;;;;;;;;;0.70;99.90;;;;;;5074239;28;19966;-59
2023/03/11 07:27:32;;;;;;;;;;;0.70;99.90;;;;;;5062481;28;19935;-59
2023/03/11 07:29:59;;;;;;;;;;;0.80;99.90;;;;;;5067747;28;20442;-61
2023/03/11 07:32:24;;;;;;;;;;;0.90;99.90;;;;;;5068911;28;19923;-59
2023/03/11 07:34:50;;;;;;;;;;;1.00;99.90;;;;;;5066529;28;19913;-59
2023/03/11 07:37:15;;;;;;;;;;;1.10;99.90;;;;;;5073103;28;19982;-60
2023/03/11 07:39:41;;;;;;;;;;;1.10;99.90;;;;;;5072393;28;19912;-59
2023/03/11 07:42:07;;;;;;;;;;;1.20;99.90;;;;;;5082151;28;19916;-60
2023/03/11 07:44:32;;;;;;;;;;;1.20;99.90;;;;;;5073145;28;19928;-60
2023/03/11 07:47:00;;;;;;;;;;;1.30;99.90;;;;;;5069596;28;19950;-60
2023/03/11 07:49:26;;;;;;;;;;;1.20;99.90;;;;;;5069595;28;20358;-60
2023/03/11 07:51:52;;;;;;;;;;;1.40;99.90;;;;;;5069728;28;19912;-60
2023/03/11 07:54:18;;;;;;;;;;;1.40;99.90;;;;;;5073944;28;20438;-60
2023/03/11 07:56:44;;;;;;;;;;;1.40;99.90;;;;;;5064341;28;19919;-60
2023/03/11 07:59:09;;;;;;;;;;;1.40;99.90;;;;;;5079311;28;19924;-60
2023/03/11 08:01:35;;;;;;;;;;;1.50;99.90;;;;;;5081404;28;19912;-60
2023/03/11 08:04:02;;;;;;;;;;;1.60;99.90;;;;;;5070013;28;19923;-60
2023/03/11 08:06:30;;;;;;;;;;;1.70;99.90;;;;;;5072015;28;19912;-59
2023/03/11 08:08:56;;;;;;;;;;;1.80;99.90;;;;;;5074647;28;20386;-60
2023/03/11 08:11:22;;;;;;;;;;;1.70;99.90;;;;;;5065795;28;20003;-60
2023/03/11 08:13:48;;;;;;;;;;;1.80;99.90;;;;;;5066380;28;20011;-60
2023/03/11 08:16:14;;;;;;;;;;;1.90;99.90;;;;;;5076842;28;19961;-60
2023/03/11 08:18:40;;;;;;;;;;;1.90;99.90;;;;;;5080098;28;19924;-60
2023/03/11 08:21:07;;;;;;;;;;;2.00;99.90;;;;;;5073197;28;19912;-60
2023/03/11 08:23:35;;;;;;;;;;;2.00;99.90;;;;;;5063515;28;21130;-60
2023/03/11 08:26:02;;;;;;;;;;;2.10;99.90;;;;;;5059841;28;19913;-60
2023/03/11 08:28:27;;;;;;;;;;;2.20;99.90;;;;;;5061645;28;20019;-59
2023/03/11 08:30:53;;;;;;;;;;;2.30;99.90;;;;;;5071008;28;19991;-58
2023/03/11 08:33:19;;;;;;;;;;;2.40;99.90;;;;;;5071308;28;19999;-59
2023/03/11 08:35:44;;;;;;;;;;;2.60;99.90;;;;;;5066957;28;19916;-59
2023/03/11 08:38:10;;;;;;;;;;;2.70;99.90;;;;;;5067847;28;20347;-58
2023/03/11 08:40:35;;;;;;;;;;;2.80;99.90;;;;;;5067806;28;19912;-57
2023/03/11 08:43:01;;;;;;;;;;;2.70;99.90;;;;;;5062993;28;19924;-58
2023/03/11 08:45:26;;;;;;;;;;;2.80;99.90;;;;;;5065734;28;19913;-58
2023/03/11 08:47:52;;;;;;;;;;;2.80;99.90;;;;;;5069059;28;20007;-58
2023/03/11 08:50:18;;;;;;;;;;;3.00;99.90;;;;;;5069182;28;19999;-57
2023/03/11 08:52:44;;;;;;;;;;;3.10;99.90;;;;;;5067203;28;19917;-58
2023/03/11 08:55:13;;;;;;;;;;;3.20;99.90;;;;;;5067137;28;19965;-58
2023/03/11 08:57:39;;;;;;;;;;;3.30;99.90;;;;;;5060910;28;20283;-60
2023/03/11 09:00:06;;;;;;;;;;;3.30;99.90;;;;;;5067274;28;19916;-58
2023/03/11 09:02:31;;;;;;;;;;;3.40;99.90;;;;;;5070683;28;19989;-58
2023/03/11 09:04:57;;;;;;;;;;;3.60;99.90;;;;;;5066947;28;19912;-59
2023/03/11 09:07:22;;;;;;;;;;;3.80;99.90;;;;;;5067436;28;20594;-58
2023/03/11 09:09:48;;;;;;;;;;;3.90;99.90;;;;;;5065716;28;19917;-59
2023/03/11 09:12:13;;;;;;;;;;;4.10;99.90;;;;;;5071454;28;19919;-57
2023/03/11 09:14:40;;;;;;;;;;;4.20;99.90;;;;;;5062217;28;20128;-59
2023/03/11 09:17:06;;;;;;;;;;;4.30;99.90;;;;;;5068297;28;19939;-59
2023/03/11 09:19:32;;;;;;;;;;;4.60;99.90;;;;;;5062346;28;19913;-59
2023/03/11 09:22:01;;;;;;;;;;;4.90;99.90;;;;;;5072451;28;20389;-59
2023/03/11 09:24:27;;;;;;;;;;;5.20;99.90;;;;;;5072540;28;20271;-59
2023/03/11 09:26:52;;;;;;;;;;;5.30;99.90;;;;;;5059380;28;20386;-59
2023/03/11 09:29:18;;;;;;;;;;;5.50;99.90;;;;;;5066690;28;19912;-59
2023/03/11 09:31:43;;;;;;;;;;;5.60;99.90;;;;;;5069100;28;19916;-59
2023/03/11 09:34:12;;;;;;;;;;;5.70;99.90;;;;;;5064049;28;19927;-59
2023/03/11 09:36:40;;;;;;;;;;;5.80;99.90;;;;;;5069493;28;19923;-61
2023/03/11 09:39:05;;;;;;;;;;;5.80;99.90;;;;;;5069001;28;19916;-61
2023/03/11 09:41:45;;;;;;;;;;;6.00;99.90;;;;;;5063578;28;19966;-62
2023/03/11 09:44:17;;;;;;;;;;;6.10;99.90;;;;;;5057120;28;19921;-61
2023/03/11 09:47:01;;;;;;;;;;;6.30;99.90;;;;;;5063562;28;19991;-61
2023/03/11 09:49:36;;;;;;;;;;;6.50;99.90;;;;;;5067749;28;19913;-61
2023/03/11 09:52:08;;;;;;;;;;;6.70;99.90;;;;;;5057941;28;19936;-62
2023/03/11 09:54:36;;;;;;;;;;;6.80;99.90;;;;;;5067852;28;19952;-62
2023/03/11 09:57:02;;;;;;;;;;;6.90;99.90;;;;;;5061299;28;20013;-61
2023/03/11 09:59:31;;;;;;;;;;;7.00;99.90;;;;;;5065408;28;19913;-61
2023/03/11 10:01:57;;;;;;;;;;;7.00;99.90;;;;;;5061426;28;19913;-60
2023/03/11 10:04:41;;;;;;;;;;;7.20;99.90;;;;;;5065222;28;19920;-61
2023/03/11 10:07:17;;;;;;;;;;;7.50;99.90;;;;;;5070007;28;19981;-60
2023/03/11 10:09:55;;;;;;;;;;;7.60;99.90;;;;;;5063628;28;19934;-60
2023/03/11 10:12:23;;;;;;;;;;;7.70;99.90;;;;;;5062711;28;20003;-62
2023/03/11 10:14:53;;;;;;;;;;;7.70;99.90;;;;;;5067205;28;19917;-61
2023/03/11 10:17:37;;;;;;;;;;;7.70;99.90;;;;;;5068443;28;20276;-60
2023/03/11 10:20:09;;;;;;;;;;;7.80;99.90;;;;;;5063952;28;20205;-60
2023/03/11 10:22:53;;;;;;;;;;;8.00;99.90;;;;;;5063085;28;20283;-60
2023/03/11 10:25:31;;;;;;;;;;;8.20;99.90;;;;;;5072728;28;19958;-61
2023/03/11 10:28:09;;;;;;;;;;;8.00;99.90;;;;;;5065576;28;20008;-60
2023/03/11 10:30:39;;;;;;;;;;;8.10;99.90;;;;;;5071304;28;19970;-61
2023/03/11 10:33:05;;;;;;;;;;;8.10;99.90;;;;;;5070363;28;19924;-62
2023/03/11 10:35:41;;;;;;;;;;;8.10;99.90;;;;;;5065604;28;19920;-60
2023/03/11 10:38:06;;;;;;;;;;;8.10;99.90;;;;;;5059110;28;19916;-61
2023/03/11 10:40:34;;;;;;;;;;;8.20;99.90;;;;;;5076431;28;19912;-60
2023/03/11 10:43:02;;;;;;;;;;;8.40;99.90;;;;;;5066014;28;19928;-61
2023/03/11 10:45:29;;;;;;;;;;;8.50;99.90;;;;;;5066091;28;19920;-60
2023/03/11 10:47:55;;;;;;;;;;;8.50;99.90;;;;;;5068447;28;20399;-62
2023/03/11 10:50:20;;;;;;;;;;;8.50;99.90;;;;;;5067457;28;19920;-61
2023/03/11 10:53:05;;;;;;;;;;;8.50;99.90;;;;;;5076455;28;20277;-61
2023/03/11 10:55:31;;;;;;;;;;;8.30;99.90;;;;;;5063791;28;20053;-60
2023/03/11 10:58:06;;;;;;;;;;;8.40;99.90;;;;;;5069293;28;20426;-60
2023/03/11 11:00:32;;;;;;;;;;;8.50;99.90;;;;;;5058750;28;19920;-61
2023/03/11 11:02:58;;;;;;;;;;;8.50;99.90;;;;;;5075764;28;19912;-61
2023/03/11 11:05:24;;;;;;;;;;;8.50;99.90;;;;;;5072502;28;20264;-61
2023/03/11 11:07:52;;;;;;;;;;;8.70;99.90;;;;;;5081321;28;20026;-61
2023/03/11 11:10:21;;;;;;;;;;;8.70;99.90;;;;;;5069592;28;20410;-61
2023/03/11 11:12:50;;;;;;;;;;;9.00;99.90;;;;;;5068991;28;20017;-62
2023/03/11 11:15:25;;;;;;;;;;;9.10;99.90;;;;;;5062204;28;19920;-61
2023/03/11 11:17:51;;;;;;;;;;;9.20;99.90;;;;;;5064327;28;20290;-61
2023/03/11 11:20:18;;;;;;;;;;;9.30;99.90;;;;;;5070507;28;19932;-62
2023/03/11 11:22:49;;;;;;;;;;;9.10;99.90;;;;;;5075950;28;19978;-61
2023/03/11 11:25:25;;;;;;;;;;;9.30;99.90;;;;;;5065551;28;19951;-62
2023/03/11 11:27:55;;;;;;;;;;;9.70;99.90;;;;;;5063529;28;20000;-62
2023/03/11 11:30:22;;;;;;;;;;;10.20;99.90;;;;;;5063296;28;19916;-62
2023/03/11 11:32:47;;;;;;;;;;;10.30;99.90;;;;;;5068548;28;20371;-62
2023/03/11 11:35:14;;;;;;;;;;;10.40;99.90;;;;;;5060880;28;19931;-61
2023/03/11 11:37:41;;;;;;;;;;;10.40;99.90;;;;;;5069067;28;19989;-62
2023/03/11 11:40:27;;;;;;;;;;;10.40;99.90;;;;;;5065424;28;19912;-60
2023/03/11 11:42:54;;;;;;;;;;;10.90;99.90;;;;;;5061868;28;19920;-59
2023/03/11 11:45:29;;;;;;;;;;;11.20;99.90;;;;;;5090524;28;19965;-60
2023/03/11 11:47:57;;;;;;;;;;;10.80;99.90;;;;;;5079431;28;19916;-60
2023/03/11 11:50:25;;;;;;;;;;;11.10;99.90;;;;;;5090596;28;20346;-61
2023/03/11 11:53:17;;;;;;;;;;;11.50;99.90;;;;;;5086680;28;20314;-60
2023/03/11 11:55:51;;;;;;;;;;;11.20;99.90;;;;;;5073324;28;19952;-60
2023/03/11 11:58:17;;;;;;;;;;;11.10;99.90;;;;;;5078830;28;19913;-60
2023/03/11 12:00:48;;;;;;;;;;;11.40;99.90;;;;;;5079752;28;19966;-59
2023/03/11 12:03:26;;;;;;;;;;;11.50;99.90;;;;;;5080152;28;19934;-60
2023/03/11 12:06:00;;;;;;;;;;;11.80;99.90;;;;;;5071834;28;19918;-61
2023/03/11 12:08:38;;;;;;;;;;;12.00;99.90;;;;;;5076477;28;19912;-60
2023/03/11 12:11:36;;;;;;;;;;;12.20;96.70;;;;;;5065538;28;19958;-61
2023/03/11 12:14:10;;;;;;;;;;;12.30;95.00;;;;;;5052635;28;19925;-60
2023/03/11 12:16:48;;;;;;;;;;;12.20;95.10;;;;;;5075137;28;19956;-60
2023/03/11 12:19:20;;;;;;;;;;;11.50;94.80;;;;;;5076022;28;19919;-60
2023/03/11 12:21:51;;;;;;;;;;;11.20;97.80;;;;;;5074196;28;19916;-60
2023/03/11 12:24:26;;;;;;;;;;;11.50;99.70;;;;;;5077963;28;20003;-60
2023/03/11 12:26:53;;;;;;;;;;;11.40;95.50;;;;;;5083653;28;20313;-60
2023/03/11 12:29:23;;;;;;;;;;;11.20;95.70;;;;;;5078143;28;19912;-59
2023/03/11 12:31:49;;;;;;;;;;;11.00;95.40;;;;;;5087544;28;19912;-59
2023/03/11 12:34:18;;;;;;;;;;;11.40;96.10;;;;;;5080767;28;20276;-60
2023/03/11 12:36:45;;;;;;;;;;;11.60;97.60;;;;;;5074623;28;19920;-61
2023/03/11 12:39:23;;;;;;;;;;;11.30;97.10;;;;;;5081277;28;19916;-61
2023/03/11 12:42:09;;;;;;;;;;;11.00;96.50;;;;;;5079435;28;19934;-60
2023/03/11 12:44:34;;;;;;;;;;;10.80;96.80;;;;;;5089768;28;19927;-60
2023/03/11 12:47:01;;;;;;;;;;;10.70;98.50;;;;;;5083545;28;19912;-60
2023/03/11 12:49:31;;;;;;;;;;;10.90;98.70;;;;;;5084345;28;19919;-60
2023/03/11 12:52:12;;;;;;;;;;;11.20;98.20;;;;;;5074326;28;19919;-59
2023/03/11 12:54:40;;;;;;;;;;;11.30;97.40;;;;;;5073257;28;19920;-60
2023/03/11 12:57:15;;;;;;;;;;;11.40;96.40;;;;;;5060166;28;20050;-60
2023/03/11 12:59:59;;;;;;;;;;;11.30;95.60;;;;;;5083737;28;20355;-60
2023/03/11 13:02:30;;;;;;;;;;;11.30;96.70;;;;;;5080154;28;19912;-60
2023/03/11 13:05:14;;;;;;;;;;;11.20;94.90;;;;;;5082954;28;19965;-60
2023/03/11 13:07:48;;;;;;;;;;;11.00;96.10;;;;;;5087600;28;19912;-60
2023/03/11 13:10:19;;;;;;;;;;;11.00;97.20;;;;;;5083891;28;19916;-60
2023/03/11 13:12:44;;;;;;;;;;;11.10;97.20;;;;;;5077844;28;19916;-60
2023/03/11 13:15:19;;;;;;;;;;;11.20;97.70;;;;;;5086071;28;20398;-59
2023/03/11 13:18:00;;;;;;;;;;;11.20;94.70;;;;;;5089133;28;19912;-59
2023/03/11 13:20:38;;;;;;;;;;;11.30;95.80;;;;;;5085404;28;19912;-60
2023/03/11 13:23:06;;;;;;;;;;;11.20;96.20;;;;;;5072099;28;19912;-59
2023/03/11 13:25:32;;;;;;;;;;;11.10;96.20;;;;;;5077780;28;20381;-59
2023/03/11 13:28:05;;;;;;;;;;;10.90;96.30;;;;;;5070772;28;19937;-60
2023/03/11 13:30:33;;;;;;;;;;;11.10;96.90;;;;;;5084322;28;19998;-61
2023/03/11 13:33:12;;;;;;;;;;;11.30;96.20;;;;;;5068341;28;20450;-60
2023/03/11 13:35:52;;;;;;;;;;;11.10;95.70;;;;;;5072953;28;20432;-59
2023/03/11 13:38:33;;;;;;;;;;;11.20;96.50;;;;;;5074433;28;19913;-60
2023/03/11 13:41:00;;;;;;;;;;;11.00;97.30;;;;;;5068957;28;19917;-60
2023/03/11 13:43:25;;;;;;;;;;;11.30;98.40;;;;;;5078332;28;20223;-60
2023/03/11 13:45:53;;;;;;;;;;;11.30;96.60;;;;;;5079499;28;19912;-60
2023/03/11 13:48:22;;;;;;;;;;;11.30;97.60;;;;;;5080817;28;19913;-60
2023/03/11 13:50:51;;;;;;;;;;;11.50;97.30;;;;;;5085040;28;20427;-60
2023/03/11 13:53:24;;;;;;;;;;;11.60;95.10;;;;;;5082500;28;20428;-61
2023/03/11 13:55:50;;;;;;;;;;;11.80;94.20;;;;;;5086211;28;19999;-61
2023/03/11 13:58:19;;;;;;;;;;;11.80;95.40;;;;;;5080509;28;20093;-61
2023/03/11 14:00:49;;;;;;;;;;;12.10;94.60;;;;;;5077846;28;20363;-61
2023/03/11 14:03:19;;;;;;;;;;;12.00;93.40;;;;;;5075797;28;20007;-61
2023/03/11 14:05:45;;;;;;;;;;;11.90;94.80;;;;;;5069717;28;19912;-61
2023/03/11 14:08:22;;;;;;;;;;;12.00;95.30;;;;;;5082854;28;20310;-61
2023/03/11 14:10:52;;;;;;;;;;;11.50;95.70;;;;;;5058724;28;19981;-61
2023/03/11 14:13:18;;;;;;;;;;;11.60;96.90;;;;;;5072475;28;19982;-60
2023/03/11 14:15:46;;;;;;;;;;;11.60;95.80;;;;;;5073327;28;20372;-60
2023/03/11 14:18:25;;;;;;;;;;;11.50;96.90;;;;;;5081838;28;19959;-60
2023/03/11 14:20:51;;;;;;;;;;;11.30;99.00;;;;;;5058054;28;19924;-60
2023/03/11 14:23:17;;;;;;;;;;;11.30;99.90;;;;;;5066482;28;19912;-60
2023/03/11 14:25:43;;;;;;;;;;;11.30;99.90;;;;;;5072426;28;19912;-60
2023/03/11 14:28:16;;;;;;;;;;;11.30;99.90;;;;;;5071450;28;19916;-61